Tipton Airport
KFME : now visible

Airfield :











YOU CAN JOIN US ON...

 
LOGIN :

Register | Disclaimer

   EN    FR    IT 

 









Legend :    VFR   Marginal VFR   IFR   Intensive IFR   Very Intensive IFR
Visi :
Ceiling :
>= 8 km
>= 3000ft
5 to 8 km
1000 to 3000 ft
1500m to 5 km
500 to 1000 ft
800 to 1500m
200 to 500 ft
< 800m
< 200 ft
Symbols :   Thunderstorms  Fog  Heavy snow  Heavy precipitations  Wind > 20 kt






- Airport Elevation : 150 ft


KFME - Tipton

CURRENT METAR :
  • 281224Z AUTO 00000KT 2 1/2SM SCT008 BKN011 OVC046 11/11 A3009 RMK AO1

EXPIRED METARs :
  • 281203Z AUTO 00000KT 5SM SCT005 BKN011 OVC029 11/11 A3010 RMK AO1
  • 281145Z AUTO 15004KT 3SM BKN005 BKN010 OVC031 11/11 A3005 RMK AO1
  • 281124Z AUTO 00000KT 2 1/2SM BKN005 OVC026 11/11 A3006 RMK AO1
  • 281103Z AUTO 00000KT 4SM SCT005 BKN039 OVC048 11/11 A3005 RMK AO1
  • 281045Z AUTO 00000KT 4SM SCT003 BKN050 OVC055 11/11 A3005 RMK AO1
  • 281003Z AUTO 09004KT 1SM BKN016 OVC022 11/11 A3004 RMK AO1
  • 280945Z AUTO 34004KT 5SM SCT032 BKN041 OVC065 11/11 A3007 RMK AO1

TAF N/A



MET'MAP, your aeronautical weather chart ! - Copyright ORBIFLY December 2007 - Disclaimer

ORBIFLY MET'MAP TEAM :

Programming & Development : Alexandra Zaïnal
Concept & original design : Baudouin d'Aumeries
Assistance for programming : Marc-Olivier Méhu
Technical & hardware support : Manuel Goepfert

Contact : metmap@orbifly.com




SOURCES & CREDITS :

   NOAA       Earth
Advisory